Terminal Aerodrome Forecast
Issued by NWS

Home | Current Version | Previous Version | Text Only | Print | Product List | Glossary On
Versions: 1 2 3 4 5 6 7 8 9 10 11 12 13 14
842
FTUS43 KFGF 141123
TAFTVF
TAF
KTVF 141123Z 1412/1512 16013G23KT P6SM OVC050
      TEMPO 1413/1415 3SM -SN OVC025
     FM141500 17015KT 3SM -SN OVC025
     FM141800 17015KT P6SM OVC025
     FM142100 17012KT P6SM OVC010
     FM150600 21007KT P6SM BKN015=

USA.gov is the U.S. government's official web portal to all federal, state and local government web resources and services.